HRYR/KGL METAR and TAF weather

Enter ICAO airport designator
Station Type Date Time Source
HRYR METAR 2021/09/16 22:00 UTC NOAA

HRYR 162200Z 31004KT 9999 FEW026 SCT100 19/15 Q1020 NOSIG


Station Type Date Time Source
HRYR Decoded METAR 2021/09/16 22:00 UTC NOAA

Kigali, Rwanda (HRYR) 01-58S 030-07E 1497M
Sep 16, 2021 - 06:00 PM EDT / 2021.09.16 2200 UTC
Wind: from the NW (310 degrees) at 5 MPH (4 KT):0
Visibility: greater than 7 mile(s):0
Sky conditions: partly cloudy
Temperature: 66 F (19 C)
Dew Point: 59 F (15 C)
Relative Humidity: 77%
Pressure (altimeter): 30.12 in. Hg (1020 hPa)
ob: HRYR 162200Z 31004KT 9999 FEW026 SCT100 19/15 Q1020 NOSIG
cycle: 22

Station Type Date Time Source
HRYR TAF 2021/09/16 18:54 UTC NOAA

TAF HRYR 161700Z 1618/1724 20008KT 9999 FEW023CB SCT025
BECMG 1620/1623 34003KT SCT026 SCT100
BECMG 1702/1705 00000KT 8000 SCT025 BKN100 FM 170900 17008KT 9999 BKN024
TEMPO 1712/1716 10010G20KT TSRA FEW022CB BKN023
BECMG 1720/1723 22006KT SCT025 BKN100

Example: see airport list